Terminal Aerodrome Forecast
Issued by NWS

Home | Current Version | Previous Version | Text Only | Print | Product List | Glossary On
Versions: 1 2 3 4 5 6 7 8 9 10 11 12 13 14 15
000
FTUS42 KMLB 052320
TAFTIX
TAF
KTIX 052320Z 0600/0624 06015KT P6SM SCT027 BKN045 OVC200
     FM060300 03008KT P6SM VCSH FEW025 BKN080
     FM061200 36013KT P6SM VCSH FEW025 SCT050 BKN250
      AMD NOT SKED 0602/0612=

USA.gov is the U.S. government's official web portal to all federal, state and local government web resources and services.